Cleveland Hopkins International Airport
KCLE : rendu visible

Aérodrome :











RETROUVEZ-NOUS SUR...

 
LOGIN :

S'inscrire | Disclaimer

   EN    FR    IT 

 









Légende :    VFR   VFR Marginal   IFR   IFR Intensif   IFR Très Intensif
Visi : 
Plafond : 
>= 8 km
>= 3000ft
5 à 8 km
1000 à 3000 ft
1500m à 5 km
500 à 1000 ft
800 à 1500m
200 à 500 ft
< 800m
< 200 ft
Symboles :   Orages  Brouillard  Fortes neiges  Fortes précipitations  Vent > 20 kt






- Altitude de l'aérodrome : 791 ft
- Code IATA : CLE


KCLE - Cleveland Hopkins International

DERNIER METAR :
  • 190251Z 28008KT 10SM FEW180 01/M03 A3025 RMK AO2 SLP248 T00111028 51029 $

METARs EXPIRÉS :
  • 190151Z 27008KT 10SM FEW180 01/M03 A3023 RMK AO2 SLP241 T00111028 $
  • 190051Z 28008KT 10SM SCT180 02/M03 A3019 RMK AO2 SLP227 T00221028 $

TAF KCLE
Valide du 19 à 03h jusqu'au 20 à 06h UTC


190257Z 1903/2006 29011KT P6SM FEW180
FM190900 28010KT P6SM BKN020
FM191200 30011KT P6SM OVC100



MET'MAP, la Météo Aéronautique d'un coup d'oeil ! - Copyright ORBIFLY Décembre 2007 - Disclaimer

ORBIFLY MET'MAP TEAM :

Programmation & Développement : Alexandra Zaïnal
Sur une idée originale de : Baudouin d'Aumeries
Assistance à la programmation : Marc-Olivier Méhu
Soutien technique & logistique : Manuel Goepfert

Contact : metmap@orbifly.com




SOURCES & CREDITS :

   NOAA       Earth
Advisory